sensor_id;sensor_type;location;lat;lon;timestamp;pressure;altitude;pressure_sealevel;temperature;humidity
16525;BME280;8375;33.594;-117.718;2022-10-23T00:01:22;99614.56;;;18.88;67.42
16525;BME280;8375;33.594;-117.718;2022-10-23T00:03:53;99624.84;;;18.83;67.92
16525;BME280;8375;33.594;-117.718;2022-10-23T00:06:23;99611.16;;;18.88;68.32
16525;BME280;8375;33.594;-117.718;2022-10-23T00:08:53;99600.78;;;18.86;68.26
16525;BME280;8375;33.594;-117.718;2022-10-23T00:11:23;99607.44;;;18.82;67.94
16525;BME280;8375;33.594;-117.718;2022-10-23T00:13:54;99603.81;;;18.83;67.51
16525;BME280;8375;33.594;-117.718;2022-10-23T00:16:23;99614.06;;;18.78;66.77
16525;BME280;8375;33.594;-117.718;2022-10-23T00:18:51;99614.56;;;18.88;67.57
16525;BME280;8375;33.594;-117.718;2022-10-23T00:21:22;99608.69;;;18.86;66.63
16525;BME280;8375;33.594;-117.718;2022-10-23T00:23:51;99608.00;;;18.77;66.56
16525;BME280;8375;33.594;-117.718;2022-10-23T00:26:20;99603.50;;;18.71;66.78
16525;BME280;8375;33.594;-117.718;2022-10-23T00:28:49;99596.59;;;18.70;67.65
16525;BME280;8375;33.594;-117.718;2022-10-23T00:31:19;99598.22;;;18.71;67.39
16525;BME280;8375;33.594;-117.718;2022-10-23T00:33:48;99601.06;;;18.55;67.41
16525;BME280;8375;33.594;-117.718;2022-10-23T00:36:18;99594.53;;;18.51;67.71
16525;BME280;8375;33.594;-117.718;2022-10-23T00:38:49;99604.50;;;18.55;67.19
16525;BME280;8375;33.594;-117.718;2022-10-23T00:41:19;99599.25;;;18.55;67.32
16525;BME280;8375;33.594;-117.718;2022-10-23T00:44:02;99599.63;;;18.52;66.49
16525;BME280;8375;33.594;-117.718;2022-10-23T00:46:32;99602.63;;;18.49;66.58
16525;BME280;8375;33.594;-117.718;2022-10-23T00:49:01;99599.47;;;18.39;66.86
16525;BME280;8375;33.594;-117.718;2022-10-23T00:51:34;99603.09;;;18.38;67.42
16525;BME280;8375;33.594;-117.718;2022-10-23T00:54:06;99596.84;;;18.39;66.93
16525;BME280;8375;33.594;-117.718;2022-10-23T00:56:37;99588.50;;;18.35;67.20
16525;BME280;8375;33.594;-117.718;2022-10-23T00:59:07;99584.63;;;18.31;66.73
16525;BME280;8375;33.594;-117.718;2022-10-23T01:01:36;99587.44;;;18.29;66.44
16525;BME280;8375;33.594;-117.718;2022-10-23T01:04:07;99587.44;;;18.29;66.91
16525;BME280;8375;33.594;-117.718;2022-10-23T01:06:39;99584.81;;;18.29;66.44
16525;BME280;8375;33.594;-117.718;2022-10-23T01:09:17;99580.19;;;18.31;66.20
16525;BME280;8375;33.594;-117.718;2022-10-23T01:11:50;99575.31;;;18.28;66.51
16525;BME280;8375;33.594;-117.718;2022-10-23T01:14:26;99572.69;;;18.28;66.99
16525;BME280;8375;33.594;-117.718;2022-10-23T01:17:02;99567.97;;;18.24;66.92
16525;BME280;8375;33.594;-117.718;2022-10-23T01:19:45;99566.59;;;18.28;67.04
16525;BME280;8375;33.594;-117.718;2022-10-23T01:22:32;99568.16;;;18.22;67.56
16525;BME280;8375;33.594;-117.718;2022-10-23T01:25:19;99560.66;;;18.19;67.81
16525;BME280;8375;33.594;-117.718;2022-10-23T01:27:54;99563.63;;;18.16;67.46
16525;BME280;8375;33.594;-117.718;2022-10-23T01:30:24;99563.38;;;18.11;67.64
16525;BME280;8375;33.594;-117.718;2022-10-23T01:32:54;99570.25;;;18.12;67.83
16525;BME280;8375;33.594;-117.718;2022-10-23T01:35:28;99571.97;;;18.05;68.55
16525;BME280;8375;33.594;-117.718;2022-10-23T01:38:02;99563.63;;;18.01;68.49
16525;BME280;8375;33.594;-117.718;2022-10-23T01:40:36;99573.63;;;18.06;68.42
16525;BME280;8375;33.594;-117.718;2022-10-23T01:43:12;99566.53;;;18.06;68.59
16525;BME280;8375;33.594;-117.718;2022-10-23T01:45:44;99560.47;;;18.06;68.85
16525;BME280;8375;33.594;-117.718;2022-10-23T01:48:20;99559.22;;;18.01;68.29
16525;BME280;8375;33.594;-117.718;2022-10-23T01:50:50;99555.41;;;18.04;69.15
16525;BME280;8375;33.594;-117.718;2022-10-23T01:53:21;99560.13;;;18.09;68.55
16525;BME280;8375;33.594;-117.718;2022-10-23T01:55:51;99558.66;;;18.06;68.60
16525;BME280;8375;33.594;-117.718;2022-10-23T01:58:23;99553.59;;;18.05;68.71
16525;BME280;8375;33.594;-117.718;2022-10-23T02:00:55;99557.03;;;18.05;68.49
16525;BME280;8375;33.594;-117.718;2022-10-23T02:03:27;99573.16;;;18.02;68.41
16525;BME280;8375;33.594;-117.718;2022-10-23T02:05:58;99575.97;;;18.00;68.44
16525;BME280;8375;33.594;-117.718;2022-10-23T02:08:26;99575.66;;;17.95;68.92
16525;BME280;8375;33.594;-117.718;2022-10-23T02:11:02;99582.91;;;17.93;69.59
16525;BME280;8375;33.594;-117.718;2022-10-23T02:13:41;99574.84;;;17.95;68.98
16525;BME280;8375;33.594;-117.718;2022-10-23T02:16:18;99576.47;;;17.96;68.95
16525;BME280;8375;33.594;-117.718;2022-10-23T02:18:54;99582.91;;;17.93;69.39
16525;BME280;8375;33.594;-117.718;2022-10-23T02:21:30;99588.78;;;17.95;68.90
16525;BME280;8375;33.594;-117.718;2022-10-23T02:24:02;99588.53;;;17.90;69.34
16525;BME280;8375;33.594;-117.718;2022-10-23T02:26:34;99585.06;;;17.89;69.97
16525;BME280;8375;33.594;-117.718;2022-10-23T02:29:09;99578.56;;;17.85;69.54
16525;BME280;8375;33.594;-117.718;2022-10-23T02:31:39;99586.63;;;17.84;69.94
16525;BME280;8375;33.594;-117.718;2022-10-23T02:34:08;99588.25;;;17.85;69.96
16525;BME280;8375;33.594;-117.718;2022-10-23T02:36:37;99581.00;;;17.87;70.09
16525;BME280;8375;33.594;-117.718;2022-10-23T02:39:05;99589.59;;;17.81;69.61
16525;BME280;8375;33.594;-117.718;2022-10-23T02:41:39;99593.88;;;17.82;70.17
16525;BME280;8375;33.594;-117.718;2022-10-23T02:44:34;99599.13;;;17.82;69.62
16525;BME280;8375;33.594;-117.718;2022-10-23T02:47:13;99592.22;;;17.81;70.05
16525;BME280;8375;33.594;-117.718;2022-10-23T02:49:50;99596.22;;;17.77;69.93
16525;BME280;8375;33.594;-117.718;2022-10-23T02:52:26;99599.63;;;17.77;70.24
16525;BME280;8375;33.594;-117.718;2022-10-23T02:55:08;99601.00;;;17.73;70.69
16525;BME280;8375;33.594;-117.718;2022-10-23T02:57:43;99594.94;;;17.72;70.41
16525;BME280;8375;33.594;-117.718;2022-10-23T03:00:16;99597.09;;;17.69;70.67
16525;BME280;8375;33.594;-117.718;2022-10-23T03:02:53;99600.19;;;17.72;70.96
16525;BME280;8375;33.594;-117.718;2022-10-23T03:05:25;99597.94;;;17.69;70.86
16525;BME280;8375;33.594;-117.718;2022-10-23T03:07:55;99608.22;;;17.71;71.55
16525;BME280;8375;33.594;-117.718;2022-10-23T03:10:24;99602.97;;;17.71;71.75
16525;BME280;8375;33.594;-117.718;2022-10-23T03:12:52;99600.56;;;17.69;71.37
16525;BME280;8375;33.594;-117.718;2022-10-23T03:15:23;99593.31;;;17.71;71.25
16525;BME280;8375;33.594;-117.718;2022-10-23T03:17:52;99598.44;;;17.65;71.73
16525;BME280;8375;33.594;-117.718;2022-10-23T03:20:20;99597.19;;;17.60;71.95
16525;BME280;8375;33.594;-117.718;2022-10-23T03:22:49;99601.00;;;17.58;72.07
16525;BME280;8375;33.594;-117.718;2022-10-23T03:25:17;99611.75;;;17.63;71.82
16525;BME280;8375;33.594;-117.718;2022-10-23T03:27:46;99600.06;;;17.66;71.78
16525;BME280;8375;33.594;-117.718;2022-10-23T03:30:15;99599.72;;;17.69;71.42
16525;BME280;8375;33.594;-117.718;2022-10-23T03:32:45;99604.16;;;17.68;71.38
16525;BME280;8375;33.594;-117.718;2022-10-23T03:35:14;99604.44;;;17.73;71.41
16525;BME280;8375;33.594;-117.718;2022-10-23T03:37:43;99599.19;;;17.73;71.34
16525;BME280;8375;33.594;-117.718;2022-10-23T03:40:11;99589.22;;;17.69;71.28
16525;BME280;8375;33.594;-117.718;2022-10-23T03:42:40;99589.22;;;17.69;71.59
16525;BME280;8375;33.594;-117.718;2022-10-23T03:45:09;99587.50;;;17.61;71.37
16525;BME280;8375;33.594;-117.718;2022-10-23T03:47:37;99602.63;;;17.59;72.04
16525;BME280;8375;33.594;-117.718;2022-10-23T03:50:09;99605.25;;;17.59;72.72
16525;BME280;8375;33.594;-117.718;2022-10-23T03:52:39;99603.41;;;17.59;72.42
16525;BME280;8375;33.594;-117.718;2022-10-23T03:55:08;99593.13;;;17.58;72.88
16525;BME280;8375;33.594;-117.718;2022-10-23T03:57:36;99606.22;;;17.58;72.63
16525;BME280;8375;33.594;-117.718;2022-10-23T04:00:06;99598.53;;;17.56;72.31
16525;BME280;8375;33.594;-117.718;2022-10-23T04:02:36;99601.34;;;17.55;72.41
16525;BME280;8375;33.594;-117.718;2022-10-23T04:05:05;99611.09;;;17.46;73.11
16525;BME280;8375;33.594;-117.718;2022-10-23T04:07:35;99611.38;;;17.51;72.64
16525;BME280;8375;33.594;-117.718;2022-10-23T04:10:05;99611.72;;;17.48;73.04
16525;BME280;8375;33.594;-117.718;2022-10-23T04:12:34;99621.22;;;17.49;74.00
16525;BME280;8375;33.594;-117.718;2022-10-23T04:15:03;99624.47;;;17.51;73.12
16525;BME280;8375;33.594;-117.718;2022-10-23T04:17:32;99623.03;;;17.49;73.27
16525;BME280;8375;33.594;-117.718;2022-10-23T04:20:01;99620.88;;;17.52;73.18
16525;BME280;8375;33.594;-117.718;2022-10-23T04:22:29;99620.06;;;17.52;73.56
16525;BME280;8375;33.594;-117.718;2022-10-23T04:24:59;99626.03;;;17.45;73.71
16525;BME280;8375;33.594;-117.718;2022-10-23T04:27:28;99629.00;;;17.42;74.15
16525;BME280;8375;33.594;-117.718;2022-10-23T04:29:57;99625.09;;;17.38;74.81
16525;BME280;8375;33.594;-117.718;2022-10-23T04:32:25;99623.19;;;17.32;75.99
16525;BME280;8375;33.594;-117.718;2022-10-23T04:34:54;99631.56;;;17.27;76.88
16525;BME280;8375;33.594;-117.718;2022-10-23T04:37:22;99634.03;;;17.29;77.50
16525;BME280;8375;33.594;-117.718;2022-10-23T04:39:51;99644.22;;;17.24;78.51
16525;BME280;8375;33.594;-117.718;2022-10-23T04:42:21;99641.31;;;17.19;79.47
16525;BME280;8375;33.594;-117.718;2022-10-23T04:44:50;99646.91;;;17.15;80.36
16525;BME280;8375;33.594;-117.718;2022-10-23T04:47:18;99656.22;;;17.18;80.34
16525;BME280;8375;33.594;-117.718;2022-10-23T04:49:47;99655.56;;;17.16;80.33
16525;BME280;8375;33.594;-117.718;2022-10-23T04:52:15;99640.03;;;17.14;80.04
16525;BME280;8375;33.594;-117.718;2022-10-23T04:54:44;99633.16;;;17.13;80.80
16525;BME280;8375;33.594;-117.718;2022-10-23T04:57:13;99640.84;;;17.15;80.63
16525;BME280;8375;33.594;-117.718;2022-10-23T04:59:43;99629.25;;;17.09;80.28
16525;BME280;8375;33.594;-117.718;2022-10-23T05:02:11;99632.91;;;17.00;80.59
16525;BME280;8375;33.594;-117.718;2022-10-23T05:04:40;99636.53;;;16.99;81.34
16525;BME280;8375;33.594;-117.718;2022-10-23T05:07:09;99629.97;;;16.95;81.53
16525;BME280;8375;33.594;-117.718;2022-10-23T05:09:37;99638.53;;;16.89;81.44
16525;BME280;8375;33.594;-117.718;2022-10-23T05:12:06;99638.69;;;16.87;81.49
16525;BME280;8375;33.594;-117.718;2022-10-23T05:14:34;99641.31;;;16.87;82.42
16525;BME280;8375;33.594;-117.718;2022-10-23T05:17:08;99633.28;;;16.89;81.95
16525;BME280;8375;33.594;-117.718;2022-10-23T05:19:42;99635.41;;;16.85;82.07
16525;BME280;8375;33.594;-117.718;2022-10-23T05:22:13;99640.22;;;16.81;82.19
16525;BME280;8375;33.594;-117.718;2022-10-23T05:24:43;99636.44;;;16.76;83.30
16525;BME280;8375;33.594;-117.718;2022-10-23T05:27:12;99642.34;;;16.78;84.00
16525;BME280;8375;33.594;-117.718;2022-10-23T05:29:40;99649.06;;;16.80;84.04
16525;BME280;8375;33.594;-117.718;2022-10-23T05:32:12;99653.31;;;16.81;84.46
16525;BME280;8375;33.594;-117.718;2022-10-23T05:34:42;99664.94;;;16.79;84.45
16525;BME280;8375;33.594;-117.718;2022-10-23T05:37:12;99668.38;;;16.79;84.63
16525;BME280;8375;33.594;-117.718;2022-10-23T05:39:43;99667.22;;;16.82;84.81
16525;BME280;8375;33.594;-117.718;2022-10-23T05:42:12;99672.31;;;16.83;84.11
16525;BME280;8375;33.594;-117.718;2022-10-23T05:44:40;99681.16;;;16.82;84.57
16525;BME280;8375;33.594;-117.718;2022-10-23T05:47:10;99683.09;;;16.89;84.44
16525;BME280;8375;33.594;-117.718;2022-10-23T05:49:39;99688.69;;;16.85;84.67
16525;BME280;8375;33.594;-117.718;2022-10-23T05:52:10;99682.25;;;16.88;84.52
16525;BME280;8375;33.594;-117.718;2022-10-23T05:54:38;99681.50;;;16.79;84.76
16525;BME280;8375;33.594;-117.718;2022-10-23T05:57:07;99689.81;;;16.83;84.53
16525;BME280;8375;33.594;-117.718;2022-10-23T05:59:36;99697.88;;;16.81;84.65
16525;BME280;8375;33.594;-117.718;2022-10-23T06:02:05;99690.16;;;16.80;84.84
16525;BME280;8375;33.594;-117.718;2022-10-23T06:04:35;99694.94;;;16.76;84.74
16525;BME280;8375;33.594;-117.718;2022-10-23T06:07:04;99689.66;;;16.84;83.65
16525;BME280;8375;33.594;-117.718;2022-10-23T06:09:32;99694.09;;;16.76;83.15
16525;BME280;8375;33.594;-117.718;2022-10-23T06:12:01;99691.34;;;16.77;83.08
16525;BME280;8375;33.594;-117.718;2022-10-23T06:14:30;99702.47;;;16.79;83.54
16525;BME280;8375;33.594;-117.718;2022-10-23T06:16:58;99691.28;;;16.85;84.36
16525;BME280;8375;33.594;-117.718;2022-10-23T06:19:27;99699.00;;;16.79;85.46
16525;BME280;8375;33.594;-117.718;2022-10-23T06:21:57;99700.19;;;16.76;85.94
16525;BME280;8375;33.594;-117.718;2022-10-23T06:24:26;99698.06;;;16.71;85.97
16525;BME280;8375;33.594;-117.718;2022-10-23T06:26:54;99683.84;;;16.66;85.55
16525;BME280;8375;33.594;-117.718;2022-10-23T06:29:23;99691.72;;;16.66;84.36
16525;BME280;8375;33.594;-117.718;2022-10-23T06:31:52;99689.88;;;16.66;83.48
16525;BME280;8375;33.594;-117.718;2022-10-23T06:34:20;99699.88;;;16.71;82.27
16525;BME280;8375;33.594;-117.718;2022-10-23T06:36:49;99695.63;;;16.70;82.95
16525;BME280;8375;33.594;-117.718;2022-10-23T06:39:19;99689.34;;;16.79;82.75
16525;BME280;8375;33.594;-117.718;2022-10-23T06:41:48;99689.19;;;16.81;83.39
16525;BME280;8375;33.594;-117.718;2022-10-23T06:44:17;99682.44;;;16.86;83.20
16525;BME280;8375;33.594;-117.718;2022-10-23T06:46:45;99689.31;;;16.88;82.34
16525;BME280;8375;33.594;-117.718;2022-10-23T06:49:16;99677.50;;;16.92;82.73
16525;BME280;8375;33.594;-117.718;2022-10-23T06:51:45;99683.09;;;16.89;82.45
16525;BME280;8375;33.594;-117.718;2022-10-23T06:54:13;99679.47;;;16.90;82.09
16525;BME280;8375;33.594;-117.718;2022-10-23T06:56:44;99682.75;;;16.92;82.47
16525;BME280;8375;33.594;-117.718;2022-10-23T06:59:12;99671.44;;;16.91;82.79
16525;BME280;8375;33.594;-117.718;2022-10-23T07:01:41;99673.41;;;16.89;82.89
16525;BME280;8375;33.594;-117.718;2022-10-23T07:04:10;99683.13;;;16.80;83.68
16525;BME280;8375;33.594;-117.718;2022-10-23T07:06:39;99674.28;;;16.81;84.64
16525;BME280;8375;33.594;-117.718;2022-10-23T07:09:08;99672.47;;;16.82;85.65
16525;BME280;8375;33.594;-117.718;2022-10-23T07:11:36;99672.66;;;16.80;86.04
16525;BME280;8375;33.594;-117.718;2022-10-23T07:14:07;99664.28;;;16.77;86.53
16525;BME280;8375;33.594;-117.718;2022-10-23T07:16:35;99668.94;;;16.66;87.00
16525;BME280;8375;33.594;-117.718;2022-10-23T07:19:04;99666.50;;;16.65;87.71
16525;BME280;8375;33.594;-117.718;2022-10-23T07:21:34;99665.34;;;16.59;88.12
16525;BME280;8375;33.594;-117.718;2022-10-23T07:24:03;99674.72;;;16.53;88.95
16525;BME280;8375;33.594;-117.718;2022-10-23T07:26:31;99670.81;;;16.49;89.37
16525;BME280;8375;33.594;-117.718;2022-10-23T07:29:00;99672.16;;;16.37;89.94
16525;BME280;8375;33.594;-117.718;2022-10-23T07:31:30;99672.31;;;16.35;90.17
16525;BME280;8375;33.594;-117.718;2022-10-23T07:33:59;99675.59;;;16.37;90.28
16525;BME280;8375;33.594;-117.718;2022-10-23T07:36:27;99672.34;;;16.27;90.75
16525;BME280;8375;33.594;-117.718;2022-10-23T07:38:56;99677.28;;;16.22;90.97
16525;BME280;8375;33.594;-117.718;2022-10-23T07:41:24;99674.53;;;16.15;91.82
16525;BME280;8375;33.594;-117.718;2022-10-23T07:43:53;99676.50;;;16.05;92.81
16525;BME280;8375;33.594;-117.718;2022-10-23T07:46:21;99673.25;;;16.03;92.35
16525;BME280;8375;33.594;-117.718;2022-10-23T07:48:52;99679.13;;;16.05;92.09
16525;BME280;8375;33.594;-117.718;2022-10-23T07:51:20;99677.63;;;16.02;92.36
16525;BME280;8375;33.594;-117.718;2022-10-23T07:53:49;99672.25;;;16.04;92.33
16525;BME280;8375;33.594;-117.718;2022-10-23T07:56:21;99670.75;;;16.09;92.84
16525;BME280;8375;33.594;-117.718;2022-10-23T07:58:50;99675.19;;;16.09;93.13
16525;BME280;8375;33.594;-117.718;2022-10-23T08:01:24;99672.06;;;16.05;92.94
16525;BME280;8375;33.594;-117.718;2022-10-23T08:03:56;99678.13;;;16.06;92.93
16525;BME280;8375;33.594;-117.718;2022-10-23T08:06:25;99682.72;;;16.04;93.25
16525;BME280;8375;33.594;-117.718;2022-10-23T08:08:53;99677.81;;;16.01;93.06
16525;BME280;8375;33.594;-117.718;2022-10-23T08:11:23;99696.28;;;15.99;93.70
16525;BME280;8375;33.594;-117.718;2022-10-23T08:13:54;99700.53;;;16.08;94.17
16525;BME280;8375;33.594;-117.718;2022-10-23T08:16:24;99699.88;;;16.15;94.12
16525;BME280;8375;33.594;-117.718;2022-10-23T08:18:52;99700.69;;;16.15;93.85
16525;BME280;8375;33.594;-117.718;2022-10-23T08:21:22;99704.97;;;16.08;94.09
16525;BME280;8375;33.594;-117.718;2022-10-23T08:23:53;99703.34;;;16.07;94.14
16525;BME280;8375;33.594;-117.718;2022-10-23T08:26:22;99692.19;;;16.13;94.13
16525;BME280;8375;33.594;-117.718;2022-10-23T08:28:51;99685.00;;;16.15;90.11
16525;BME280;8375;33.594;-117.718;2022-10-23T08:31:20;99685.31;;;16.12;89.06
16525;BME280;8375;33.594;-117.718;2022-10-23T08:33:50;99684.34;;;16.13;86.09
16525;BME280;8375;33.594;-117.718;2022-10-23T08:36:20;99678.94;;;16.06;85.03
16525;BME280;8375;33.594;-117.718;2022-10-23T08:38:51;99678.13;;;16.06;85.66
16525;BME280;8375;33.594;-117.718;2022-10-23T08:41:24;99680.44;;;15.92;84.14
16525;BME280;8375;33.594;-117.718;2022-10-23T08:43:59;99679.78;;;15.98;84.74
16525;BME280;8375;33.594;-117.718;2022-10-23T08:46:32;99676.19;;;15.91;83.54
16525;BME280;8375;33.594;-117.718;2022-10-23T08:49:16;99688.59;;;15.89;83.14
16525;BME280;8375;33.594;-117.718;2022-10-23T08:51:49;99681.88;;;15.87;83.12
16525;BME280;8375;33.594;-117.718;2022-10-23T08:54:23;99674.38;;;15.92;83.12
16525;BME280;8375;33.594;-117.718;2022-10-23T08:56:59;99673.72;;;15.90;83.56
16525;BME280;8375;33.594;-117.718;2022-10-23T08:59:31;99672.41;;;15.86;80.20
16525;BME280;8375;33.594;-117.718;2022-10-23T09:02:14;99677.13;;;15.82;80.18
16525;BME280;8375;33.594;-117.718;2022-10-23T09:04:46;99675.81;;;15.78;78.65
16525;BME280;8375;33.594;-117.718;2022-10-23T09:07:20;99682.38;;;15.74;79.22
16525;BME280;8375;33.594;-117.718;2022-10-23T09:10:15;99693.66;;;15.74;79.14
16525;BME280;8375;33.594;-117.718;2022-10-23T09:12:46;99682.22;;;15.67;78.18
16525;BME280;8375;33.594;-117.718;2022-10-23T09:15:21;99679.09;;;15.63;78.49
16525;BME280;8375;33.594;-117.718;2022-10-23T09:17:56;99677.47;;;15.62;78.66
16525;BME280;8375;33.594;-117.718;2022-10-23T09:20:26;99682.56;;;15.64;78.16
16525;BME280;8375;33.594;-117.718;2022-10-23T09:22:57;99681.41;;;15.58;77.64
16525;BME280;8375;33.594;-117.718;2022-10-23T09:25:30;99684.34;;;15.55;78.13
16525;BME280;8375;33.594;-117.718;2022-10-23T09:28:01;99689.75;;;15.53;78.17
16525;BME280;8375;33.594;-117.718;2022-10-23T09:30:32;99691.19;;;15.48;78.50
16525;BME280;8375;33.594;-117.718;2022-10-23T09:33:13;99691.84;;;15.50;78.69
16525;BME280;8375;33.594;-117.718;2022-10-23T09:35:52;99685.50;;;15.44;78.29
16525;BME280;8375;33.594;-117.718;2022-10-23T09:38:29;99685.63;;;15.43;78.45
16525;BME280;8375;33.594;-117.718;2022-10-23T09:41:05;99685.63;;;15.43;78.70
16525;BME280;8375;33.594;-117.718;2022-10-23T09:43:34;99690.53;;;15.37;79.53
16525;BME280;8375;33.594;-117.718;2022-10-23T09:46:04;99689.56;;;15.38;78.21
16525;BME280;8375;33.594;-117.718;2022-10-23T09:48:33;99692.81;;;15.24;78.62
16525;BME280;8375;33.594;-117.718;2022-10-23T09:51:03;99688.88;;;15.20;78.60
16525;BME280;8375;33.594;-117.718;2022-10-23T09:53:34;99691.34;;;15.21;79.28
16525;BME280;8375;33.594;-117.718;2022-10-23T09:56:24;99691.00;;;15.08;79.94
16525;BME280;8375;33.594;-117.718;2022-10-23T09:58:55;99703.06;;;15.09;80.20
16525;BME280;8375;33.594;-117.718;2022-10-23T10:01:25;99703.22;;;15.07;80.68
16525;BME280;8375;33.594;-117.718;2022-10-23T10:03:54;99705.19;;;15.05;81.25
16525;BME280;8375;33.594;-117.718;2022-10-23T10:06:25;99702.88;;;15.02;81.68
16525;BME280;8375;33.594;-117.718;2022-10-23T10:08:56;99702.06;;;14.93;81.00
16525;BME280;8375;33.594;-117.718;2022-10-23T10:11:32;99702.19;;;14.92;81.24
16525;BME280;8375;33.594;-117.718;2022-10-23T10:14:39;99700.41;;;14.84;81.75
16525;BME280;8375;33.594;-117.718;2022-10-23T10:17:16;99704.09;;;14.73;81.85
16525;BME280;8375;33.594;-117.718;2022-10-23T10:20:03;99702.16;;;14.75;82.46
16525;BME280;8375;33.594;-117.718;2022-10-23T10:22:38;99703.88;;;14.66;82.65
16525;BME280;8375;33.594;-117.718;2022-10-23T10:25:14;99706.16;;;14.61;82.76
16525;BME280;8375;33.594;-117.718;2022-10-23T10:27:54;99707.94;;;14.61;82.73
16525;BME280;8375;33.594;-117.718;2022-10-23T10:30:33;99711.81;;;14.57;82.50
16525;BME280;8375;33.594;-117.718;2022-10-23T10:33:08;99717.66;;;14.50;82.58
16525;BME280;8375;33.594;-117.718;2022-10-23T10:35:46;99712.63;;;14.49;82.48
16525;BME280;8375;33.594;-117.718;2022-10-23T10:41:27;99709.75;;;14.34;83.04
16525;BME280;8375;33.594;-117.718;2022-10-23T10:44:11;99714.78;;;14.27;83.28
16525;BME280;8375;33.594;-117.718;2022-10-23T10:46:47;99705.16;;;14.28;83.42
16525;BME280;8375;33.594;-117.718;2022-10-23T10:49:21;99707.41;;;14.22;83.48
16525;BME280;8375;33.594;-117.718;2022-10-23T10:51:57;99705.47;;;14.25;84.08
16525;BME280;8375;33.594;-117.718;2022-10-23T10:54:41;99699.44;;;14.24;83.79
16525;BME280;8375;33.594;-117.718;2022-10-23T10:57:22;99703.16;;;14.21;83.46
16525;BME280;8375;33.594;-117.718;2022-10-23T10:59:59;99695.44;;;14.12;83.80
16525;BME280;8375;33.594;-117.718;2022-10-23T11:02:32;99699.81;;;14.11;84.55
16525;BME280;8375;33.594;-117.718;2022-10-23T11:05:17;99697.53;;;14.08;84.92
16525;BME280;8375;33.594;-117.718;2022-10-23T11:07:53;99696.84;;;14.06;84.69
16525;BME280;8375;33.594;-117.718;2022-10-23T11:10:22;99698.13;;;14.02;85.47
16525;BME280;8375;33.594;-117.718;2022-10-23T11:12:51;99688.53;;;14.02;87.92
16525;BME280;8375;33.594;-117.718;2022-10-23T11:15:27;99689.94;;;13.97;87.38
16525;BME280;8375;33.594;-117.718;2022-10-23T11:17:58;99689.28;;;13.94;86.96
16525;BME280;8375;33.594;-117.718;2022-10-23T11:20:43;99682.41;;;13.93;86.07
16525;BME280;8375;33.594;-117.718;2022-10-23T11:26:30;99684.16;;;13.85;86.85
16525;BME280;8375;33.594;-117.718;2022-10-23T11:29:20;99691.34;;;13.83;86.99
16525;BME280;8375;33.594;-117.718;2022-10-23T11:35:09;99695.41;;;13.85;86.62
16525;BME280;8375;33.594;-117.718;2022-10-23T11:37:42;99685.94;;;13.84;86.78
16525;BME280;8375;33.594;-117.718;2022-10-23T11:40:21;99684.31;;;13.83;87.80
16525;BME280;8375;33.594;-117.718;2022-10-23T11:42:51;99681.56;;;13.85;88.33
16525;BME280;8375;33.594;-117.718;2022-10-23T11:45:28;99681.94;;;13.90;88.25
16525;BME280;8375;33.594;-117.718;2022-10-23T11:47:59;99681.44;;;13.94;87.46
16525;BME280;8375;33.594;-117.718;2022-10-23T11:50:32;99683.25;;;13.94;86.96
16525;BME280;8375;33.594;-117.718;2022-10-23T11:53:06;99687.94;;;13.90;87.26
16525;BME280;8375;33.594;-117.718;2022-10-23T11:55:58;99685.50;;;13.89;87.77
16525;BME280;8375;33.594;-117.718;2022-10-23T11:58:38;99684.00;;;13.86;87.56
16525;BME280;8375;33.594;-117.718;2022-10-23T12:01:19;99691.53;;;13.89;87.66
16525;BME280;8375;33.594;-117.718;2022-10-23T12:03:55;99685.50;;;13.89;87.48
16525;BME280;8375;33.594;-117.718;2022-10-23T12:06:27;99685.69;;;13.96;87.33
16525;BME280;8375;33.594;-117.718;2022-10-23T12:09:01;99688.56;;;13.84;87.51
16525;BME280;8375;33.594;-117.718;2022-10-23T12:11:43;99683.88;;;13.88;87.76
16525;BME280;8375;33.594;-117.718;2022-10-23T12:14:39;99686.56;;;13.78;88.03
16525;BME280;8375;33.594;-117.718;2022-10-23T12:17:32;99686.72;;;13.76;89.09
16525;BME280;8375;33.594;-117.718;2022-10-23T12:20:30;99691.63;;;13.79;88.52
16525;BME280;8375;33.594;-117.718;2022-10-23T12:23:26;99697.28;;;13.75;88.23
16525;BME280;8375;33.594;-117.718;2022-10-23T12:26:16;99697.16;;;13.76;89.15
16525;BME280;8375;33.594;-117.718;2022-10-23T12:28:51;99689.75;;;13.72;88.96
16525;BME280;8375;33.594;-117.718;2022-10-23T12:31:29;99690.13;;;13.77;88.32
16525;BME280;8375;33.594;-117.718;2022-10-23T12:34:08;99694.91;;;13.82;88.10
16525;BME280;8375;33.594;-117.718;2022-10-23T12:36:51;99692.97;;;13.84;88.12
16525;BME280;8375;33.594;-117.718;2022-10-23T12:39:28;99691.84;;;13.86;88.21
16525;BME280;8375;33.594;-117.718;2022-10-23T12:41:57;99700.03;;;13.91;88.38
16525;BME280;8375;33.594;-117.718;2022-10-23T12:44:27;99712.34;;;13.81;88.80
16525;BME280;8375;33.594;-117.718;2022-10-23T12:46:57;99711.66;;;13.79;89.12
16525;BME280;8375;33.594;-117.718;2022-10-23T12:49:27;99718.38;;;13.82;88.91
16525;BME280;8375;33.594;-117.718;2022-10-23T12:52:02;99717.25;;;13.84;88.72
16525;BME280;8375;33.594;-117.718;2022-10-23T12:54:32;99725.06;;;13.84;88.44
16525;BME280;8375;33.594;-117.718;2022-10-23T12:57:18;99722.69;;;13.91;88.50
16525;BME280;8375;33.594;-117.718;2022-10-23T12:59:48;99727.16;;;13.99;88.33
16525;BME280;8375;33.594;-117.718;2022-10-23T13:02:23;99725.50;;;13.98;88.74
16525;BME280;8375;33.594;-117.718;2022-10-23T13:04:53;99735.56;;;13.92;87.79
16525;BME280;8375;33.594;-117.718;2022-10-23T13:07:26;99738.25;;;14.01;88.16
16525;BME280;8375;33.594;-117.718;2022-10-23T13:09:57;99741.22;;;14.06;88.11
16525;BME280;8375;33.594;-117.718;2022-10-23T13:12:28;99737.94;;;14.04;88.27
16525;BME280;8375;33.594;-117.718;2022-10-23T13:14:59;99746.13;;;14.09;88.46
16525;BME280;8375;33.594;-117.718;2022-10-23T13:17:37;99745.34;;;14.08;88.61